sensor_id;sensor_type;location;lat;lon;timestamp;P1;durP1;ratioP1;P2;durP2;ratioP2
64244;SDS011;50584;29.058;-110.966;2023-10-31T00:02:11;5.45;;;1.27;;
64244;SDS011;50584;29.058;-110.966;2023-10-31T00:04:37;5.18;;;1.15;;
64244;SDS011;50584;29.058;-110.966;2023-10-31T00:07:03;11.13;;;1.33;;
64244;SDS011;50584;29.058;-110.966;2023-10-31T00:09:28;5.57;;;1.30;;
64244;SDS011;50584;29.058;-110.966;2023-10-31T00:11:54;1.30;;;1.20;;
64244;SDS011;50584;29.058;-110.966;2023-10-31T00:14:20;3.05;;;1.17;;
64244;SDS011;50584;29.058;-110.966;2023-10-31T00:16:46;6.82;;;1.17;;
64244;SDS011;50584;29.058;-110.966;2023-10-31T00:19:14;4.50;;;0.98;;
64244;SDS011;50584;29.058;-110.966;2023-10-31T00:21:39;4.57;;;1.17;;
64244;SDS011;50584;29.058;-110.966;2023-10-31T00:24:05;4.47;;;1.25;;
64244;SDS011;50584;29.058;-110.966;2023-10-31T00:26:31;5.75;;;1.50;;
64244;SDS011;50584;29.058;-110.966;2023-10-31T00:28:57;15.73;;;1.30;;
64244;SDS011;50584;29.058;-110.966;2023-10-31T00:31:22;13.32;;;1.67;;
64244;SDS011;50584;29.058;-110.966;2023-10-31T00:33:48;13.38;;;1.67;;
64244;SDS011;50584;29.058;-110.966;2023-10-31T00:36:14;6.15;;;1.50;;
64244;SDS011;50584;29.058;-110.966;2023-10-31T00:38:40;10.45;;;1.45;;
64244;SDS011;50584;29.058;-110.966;2023-10-31T00:41:05;11.38;;;2.15;;
64244;SDS011;50584;29.058;-110.966;2023-10-31T00:43:31;22.90;;;2.35;;
64244;SDS011;50584;29.058;-110.966;2023-10-31T00:45:57;20.48;;;1.80;;
64244;SDS011;50584;29.058;-110.966;2023-10-31T00:48:23;13.73;;;1.90;;
64244;SDS011;50584;29.058;-110.966;2023-10-31T00:50:48;21.20;;;1.50;;
64244;SDS011;50584;29.058;-110.966;2023-10-31T00:53:14;14.73;;;1.80;;
64244;SDS011;50584;29.058;-110.966;2023-10-31T00:55:41;11.68;;;1.70;;
64244;SDS011;50584;29.058;-110.966;2023-10-31T00:58:07;9.50;;;1.73;;
64244;SDS011;50584;29.058;-110.966;2023-10-31T01:00:33;6.95;;;1.55;;
64244;SDS011;50584;29.058;-110.966;2023-10-31T01:02:59;15.63;;;1.90;;
64244;SDS011;50584;29.058;-110.966;2023-10-31T01:05:25;5.47;;;1.73;;
64244;SDS011;50584;29.058;-110.966;2023-10-31T01:07:53;18.98;;;1.58;;
64244;SDS011;50584;29.058;-110.966;2023-10-31T01:10:19;8.13;;;1.90;;
64244;SDS011;50584;29.058;-110.966;2023-10-31T01:12:45;15.25;;;1.80;;
64244;SDS011;50584;29.058;-110.966;2023-10-31T01:15:11;16.25;;;2.28;;
64244;SDS011;50584;29.058;-110.966;2023-10-31T01:17:36;11.23;;;1.20;;
64244;SDS011;50584;29.058;-110.966;2023-10-31T01:20:02;17.75;;;1.73;;
64244;SDS011;50584;29.058;-110.966;2023-10-31T01:22:28;7.70;;;1.60;;
64244;SDS011;50584;29.058;-110.966;2023-10-31T01:24:54;9.82;;;1.63;;
64244;SDS011;50584;29.058;-110.966;2023-10-31T01:27:21;7.57;;;1.50;;
64244;SDS011;50584;29.058;-110.966;2023-10-31T01:29:47;10.55;;;1.40;;
64244;SDS011;50584;29.058;-110.966;2023-10-31T01:32:13;9.15;;;1.98;;
64244;SDS011;50584;29.058;-110.966;2023-10-31T01:34:38;12.35;;;1.67;;
64244;SDS011;50584;29.058;-110.966;2023-10-31T01:37:04;17.65;;;1.88;;
64244;SDS011;50584;29.058;-110.966;2023-10-31T01:39:30;8.73;;;1.70;;
64244;SDS011;50584;29.058;-110.966;2023-10-31T01:41:56;8.32;;;1.88;;
64244;SDS011;50584;29.058;-110.966;2023-10-31T01:44:22;18.38;;;2.38;;
64244;SDS011;50584;29.058;-110.966;2023-10-31T01:46:47;11.00;;;1.75;;
64244;SDS011;50584;29.058;-110.966;2023-10-31T01:49:14;27.58;;;2.40;;
64244;SDS011;50584;29.058;-110.966;2023-10-31T01:51:40;10.63;;;2.55;;
64244;SDS011;50584;29.058;-110.966;2023-10-31T01:54:06;26.23;;;6.75;;
64244;SDS011;50584;29.058;-110.966;2023-10-31T01:56:32;44.00;;;20.10;;
64244;SDS011;50584;29.058;-110.966;2023-10-31T01:58:58;27.38;;;8.82;;
64244;SDS011;50584;29.058;-110.966;2023-10-31T02:01:24;25.15;;;10.52;;
64244;SDS011;50584;29.058;-110.966;2023-10-31T02:03:49;22.10;;;4.90;;
64244;SDS011;50584;29.058;-110.966;2023-10-31T02:06:15;16.17;;;3.42;;
64244;SDS011;50584;29.058;-110.966;2023-10-31T02:08:41;10.70;;;2.33;;
64244;SDS011;50584;29.058;-110.966;2023-10-31T02:11:07;9.55;;;1.70;;
64244;SDS011;50584;29.058;-110.966;2023-10-31T02:13:35;10.68;;;2.00;;
64244;SDS011;50584;29.058;-110.966;2023-10-31T02:16:02;12.32;;;2.00;;
64244;SDS011;50584;29.058;-110.966;2023-10-31T02:18:27;17.88;;;2.35;;
64244;SDS011;50584;29.058;-110.966;2023-10-31T02:20:53;7.65;;;1.92;;
64244;SDS011;50584;29.058;-110.966;2023-10-31T02:23:19;24.67;;;3.42;;
64244;SDS011;50584;29.058;-110.966;2023-10-31T02:25:45;14.35;;;2.28;;
64244;SDS011;50584;29.058;-110.966;2023-10-31T02:28:10;18.83;;;2.15;;
64244;SDS011;50584;29.058;-110.966;2023-10-31T02:30:36;23.08;;;4.15;;
64244;SDS011;50584;29.058;-110.966;2023-10-31T02:33:02;29.08;;;3.22;;
64244;SDS011;50584;29.058;-110.966;2023-10-31T02:35:28;17.98;;;2.25;;
64244;SDS011;50584;29.058;-110.966;2023-10-31T02:37:54;22.75;;;2.92;;
64244;SDS011;50584;29.058;-110.966;2023-10-31T02:40:20;26.80;;;2.20;;
64244;SDS011;50584;29.058;-110.966;2023-10-31T02:42:45;16.05;;;2.55;;
64244;SDS011;50584;29.058;-110.966;2023-10-31T02:45:11;22.55;;;3.08;;
64244;SDS011;50584;29.058;-110.966;2023-10-31T02:47:37;19.55;;;2.10;;
64244;SDS011;50584;29.058;-110.966;2023-10-31T02:50:03;24.00;;;2.40;;
64244;SDS011;50584;29.058;-110.966;2023-10-31T02:52:29;24.75;;;2.58;;
64244;SDS011;50584;29.058;-110.966;2023-10-31T02:54:55;19.58;;;2.72;;
64244;SDS011;50584;29.058;-110.966;2023-10-31T02:57:20;17.15;;;2.47;;
64244;SDS011;50584;29.058;-110.966;2023-10-31T02:59:46;24.63;;;2.15;;
64244;SDS011;50584;29.058;-110.966;2023-10-31T03:02:12;13.95;;;2.38;;
64244;SDS011;50584;29.058;-110.966;2023-10-31T03:04:38;22.27;;;2.33;;
64244;SDS011;50584;29.058;-110.966;2023-10-31T03:07:03;15.13;;;2.65;;
64244;SDS011;50584;29.058;-110.966;2023-10-31T03:09:29;17.08;;;2.67;;
64244;SDS011;50584;29.058;-110.966;2023-10-31T03:11:55;20.90;;;2.88;;
64244;SDS011;50584;29.058;-110.966;2023-10-31T03:14:21;19.23;;;3.00;;
64244;SDS011;50584;29.058;-110.966;2023-10-31T03:16:47;18.77;;;3.15;;
64244;SDS011;50584;29.058;-110.966;2023-10-31T03:19:12;15.73;;;2.67;;
64244;SDS011;50584;29.058;-110.966;2023-10-31T03:21:38;17.58;;;3.00;;
64244;SDS011;50584;29.058;-110.966;2023-10-31T03:24:04;23.02;;;3.10;;
64244;SDS011;50584;29.058;-110.966;2023-10-31T03:26:30;15.88;;;2.53;;
64244;SDS011;50584;29.058;-110.966;2023-10-31T03:28:56;25.42;;;2.70;;
64244;SDS011;50584;29.058;-110.966;2023-10-31T03:31:25;10.25;;;2.58;;
64244;SDS011;50584;29.058;-110.966;2023-10-31T03:33:51;17.38;;;2.40;;
64244;SDS011;50584;29.058;-110.966;2023-10-31T03:36:16;18.17;;;2.83;;
64244;SDS011;50584;29.058;-110.966;2023-10-31T03:38:42;15.60;;;2.35;;
64244;SDS011;50584;29.058;-110.966;2023-10-31T03:41:08;26.38;;;3.28;;
64244;SDS011;50584;29.058;-110.966;2023-10-31T03:43:34;17.20;;;3.13;;
64244;SDS011;50584;29.058;-110.966;2023-10-31T03:46:00;19.98;;;3.08;;
64244;SDS011;50584;29.058;-110.966;2023-10-31T03:48:25;16.55;;;3.20;;
64244;SDS011;50584;29.058;-110.966;2023-10-31T03:50:51;27.27;;;4.05;;
64244;SDS011;50584;29.058;-110.966;2023-10-31T03:53:17;24.77;;;3.58;;
64244;SDS011;50584;29.058;-110.966;2023-10-31T03:55:43;23.88;;;3.28;;
64244;SDS011;50584;29.058;-110.966;2023-10-31T03:58:09;18.35;;;3.35;;
64244;SDS011;50584;29.058;-110.966;2023-10-31T04:00:34;17.95;;;3.20;;
64244;SDS011;50584;29.058;-110.966;2023-10-31T04:03:00;18.27;;;2.95;;
64244;SDS011;50584;29.058;-110.966;2023-10-31T04:05:26;17.15;;;2.45;;
64244;SDS011;50584;29.058;-110.966;2023-10-31T04:07:52;14.82;;;3.55;;
64244;SDS011;50584;29.058;-110.966;2023-10-31T04:10:18;22.13;;;3.58;;
64244;SDS011;50584;29.058;-110.966;2023-10-31T04:12:44;15.20;;;3.30;;
64244;SDS011;50584;29.058;-110.966;2023-10-31T04:15:10;19.67;;;3.90;;
64244;SDS011;50584;29.058;-110.966;2023-10-31T04:17:36;19.35;;;2.95;;
64244;SDS011;50584;29.058;-110.966;2023-10-31T04:20:02;19.52;;;2.22;;
64244;SDS011;50584;29.058;-110.966;2023-10-31T04:22:28;22.27;;;3.25;;
64244;SDS011;50584;29.058;-110.966;2023-10-31T04:24:54;18.73;;;2.67;;
64244;SDS011;50584;29.058;-110.966;2023-10-31T04:27:19;11.85;;;2.78;;
64244;SDS011;50584;29.058;-110.966;2023-10-31T04:29:45;19.25;;;3.70;;
64244;SDS011;50584;29.058;-110.966;2023-10-31T04:32:11;28.33;;;3.10;;
64244;SDS011;50584;29.058;-110.966;2023-10-31T04:34:37;14.30;;;2.67;;
64244;SDS011;50584;29.058;-110.966;2023-10-31T04:37:03;21.92;;;2.55;;
64244;SDS011;50584;29.058;-110.966;2023-10-31T04:39:29;24.15;;;2.47;;
64244;SDS011;50584;29.058;-110.966;2023-10-31T04:41:54;16.23;;;2.28;;
64244;SDS011;50584;29.058;-110.966;2023-10-31T04:44:20;19.77;;;2.50;;
64244;SDS011;50584;29.058;-110.966;2023-10-31T04:46:46;22.02;;;4.97;;
64244;SDS011;50584;29.058;-110.966;2023-10-31T04:49:12;16.25;;;2.70;;
64244;SDS011;50584;29.058;-110.966;2023-10-31T04:51:38;13.65;;;3.30;;
64244;SDS011;50584;29.058;-110.966;2023-10-31T04:54:04;8.77;;;3.38;;
64244;SDS011;50584;29.058;-110.966;2023-10-31T04:56:30;20.83;;;3.17;;
64244;SDS011;50584;29.058;-110.966;2023-10-31T04:58:56;21.90;;;3.30;;
64244;SDS011;50584;29.058;-110.966;2023-10-31T05:01:22;17.10;;;3.10;;
64244;SDS011;50584;29.058;-110.966;2023-10-31T05:03:48;14.50;;;3.63;;
64244;SDS011;50584;29.058;-110.966;2023-10-31T05:06:18;9.18;;;2.83;;
64244;SDS011;50584;29.058;-110.966;2023-10-31T05:08:44;10.38;;;2.65;;
64244;SDS011;50584;29.058;-110.966;2023-10-31T05:11:10;20.45;;;3.88;;
64244;SDS011;50584;29.058;-110.966;2023-10-31T05:13:35;18.02;;;3.70;;
64244;SDS011;50584;29.058;-110.966;2023-10-31T05:16:01;18.10;;;3.67;;
64244;SDS011;50584;29.058;-110.966;2023-10-31T05:18:27;23.25;;;3.10;;
64244;SDS011;50584;29.058;-110.966;2023-10-31T05:20:53;19.33;;;3.58;;
64244;SDS011;50584;29.058;-110.966;2023-10-31T05:23:18;14.60;;;2.92;;
64244;SDS011;50584;29.058;-110.966;2023-10-31T05:25:44;20.40;;;3.13;;
64244;SDS011;50584;29.058;-110.966;2023-10-31T05:28:10;15.40;;;2.70;;
64244;SDS011;50584;29.058;-110.966;2023-10-31T05:30:36;11.77;;;3.15;;
64244;SDS011;50584;29.058;-110.966;2023-10-31T05:33:02;23.05;;;3.38;;
64244;SDS011;50584;29.058;-110.966;2023-10-31T05:35:28;16.42;;;3.17;;
64244;SDS011;50584;29.058;-110.966;2023-10-31T05:37:53;16.55;;;2.80;;
64244;SDS011;50584;29.058;-110.966;2023-10-31T05:40:19;17.48;;;3.58;;
64244;SDS011;50584;29.058;-110.966;2023-10-31T05:42:47;12.82;;;3.40;;
64244;SDS011;50584;29.058;-110.966;2023-10-31T05:45:13;20.50;;;3.53;;
64244;SDS011;50584;29.058;-110.966;2023-10-31T05:47:39;18.52;;;3.38;;
64244;SDS011;50584;29.058;-110.966;2023-10-31T05:50:05;13.18;;;2.05;;
64244;SDS011;50584;29.058;-110.966;2023-10-31T05:52:31;12.07;;;3.17;;
64244;SDS011;50584;29.058;-110.966;2023-10-31T05:54:57;10.13;;;2.60;;
64244;SDS011;50584;29.058;-110.966;2023-10-31T05:57:23;20.25;;;3.60;;
64244;SDS011;50584;29.058;-110.966;2023-10-31T05:59:49;23.45;;;2.90;;
64244;SDS011;50584;29.058;-110.966;2023-10-31T06:02:15;19.48;;;3.03;;
64244;SDS011;50584;29.058;-110.966;2023-10-31T06:04:41;20.63;;;3.78;;
64244;SDS011;50584;29.058;-110.966;2023-10-31T06:07:07;17.80;;;2.38;;
64244;SDS011;50584;29.058;-110.966;2023-10-31T06:09:33;25.08;;;4.45;;
64244;SDS011;50584;29.058;-110.966;2023-10-31T06:11:59;18.85;;;2.97;;
64244;SDS011;50584;29.058;-110.966;2023-10-31T06:14:31;8.95;;;3.15;;
64244;SDS011;50584;29.058;-110.966;2023-10-31T06:16:57;20.58;;;3.25;;
64244;SDS011;50584;29.058;-110.966;2023-10-31T06:19:24;17.90;;;3.47;;
64244;SDS011;50584;29.058;-110.966;2023-10-31T06:21:50;22.65;;;3.20;;
64244;SDS011;50584;29.058;-110.966;2023-10-31T06:24:16;15.98;;;3.10;;
64244;SDS011;50584;29.058;-110.966;2023-10-31T06:26:41;14.18;;;2.80;;
64244;SDS011;50584;29.058;-110.966;2023-10-31T06:29:07;11.73;;;3.15;;
64244;SDS011;50584;29.058;-110.966;2023-10-31T06:31:33;17.65;;;3.42;;
64244;SDS011;50584;29.058;-110.966;2023-10-31T06:33:59;19.65;;;3.22;;
64244;SDS011;50584;29.058;-110.966;2023-10-31T06:36:24;18.42;;;3.10;;
64244;SDS011;50584;29.058;-110.966;2023-10-31T06:38:50;14.93;;;3.17;;
64244;SDS011;50584;29.058;-110.966;2023-10-31T06:41:17;27.65;;;3.40;;
64244;SDS011;50584;29.058;-110.966;2023-10-31T06:43:43;26.42;;;4.10;;
64244;SDS011;50584;29.058;-110.966;2023-10-31T06:46:08;17.45;;;3.20;;
64244;SDS011;50584;29.058;-110.966;2023-10-31T06:48:34;12.75;;;3.50;;
64244;SDS011;50584;29.058;-110.966;2023-10-31T06:51:00;13.52;;;3.95;;
64244;SDS011;50584;29.058;-110.966;2023-10-31T06:53:26;12.15;;;3.25;;
64244;SDS011;50584;29.058;-110.966;2023-10-31T06:55:52;20.88;;;3.55;;
64244;SDS011;50584;29.058;-110.966;2023-10-31T06:58:17;21.38;;;3.85;;
64244;SDS011;50584;29.058;-110.966;2023-10-31T07:00:43;31.00;;;4.00;;
64244;SDS011;50584;29.058;-110.966;2023-10-31T07:03:09;35.00;;;4.80;;
64244;SDS011;50584;29.058;-110.966;2023-10-31T07:08:05;31.73;;;4.70;;
64244;SDS011;50584;29.058;-110.966;2023-10-31T07:10:31;28.05;;;5.05;;
64244;SDS011;50584;29.058;-110.966;2023-10-31T07:12:57;27.23;;;5.32;;
64244;SDS011;50584;29.058;-110.966;2023-10-31T07:15:24;29.27;;;5.03;;
64244;SDS011;50584;29.058;-110.966;2023-10-31T07:17:50;26.27;;;4.78;;
64244;SDS011;50584;29.058;-110.966;2023-10-31T07:20:15;27.77;;;5.47;;
64244;SDS011;50584;29.058;-110.966;2023-10-31T07:22:42;27.80;;;4.88;;
64244;SDS011;50584;29.058;-110.966;2023-10-31T07:25:08;22.90;;;4.15;;
64244;SDS011;50584;29.058;-110.966;2023-10-31T07:27:34;24.27;;;5.88;;
64244;SDS011;50584;29.058;-110.966;2023-10-31T07:29:59;21.83;;;4.22;;
64244;SDS011;50584;29.058;-110.966;2023-10-31T07:32:25;26.58;;;4.35;;
64244;SDS011;50584;29.058;-110.966;2023-10-31T07:34:51;23.58;;;3.83;;
64244;SDS011;50584;29.058;-110.966;2023-10-31T07:37:17;29.98;;;4.30;;
64244;SDS011;50584;29.058;-110.966;2023-10-31T07:39:43;18.65;;;4.07;;
64244;SDS011;50584;29.058;-110.966;2023-10-31T07:42:09;22.10;;;3.83;;
64244;SDS011;50584;29.058;-110.966;2023-10-31T07:44:35;28.02;;;3.97;;
64244;SDS011;50584;29.058;-110.966;2023-10-31T07:47:01;16.23;;;3.20;;
64244;SDS011;50584;29.058;-110.966;2023-10-31T07:49:27;16.60;;;3.22;;
64244;SDS011;50584;29.058;-110.966;2023-10-31T07:51:52;20.20;;;3.80;;
64244;SDS011;50584;29.058;-110.966;2023-10-31T07:54:18;15.68;;;3.15;;
64244;SDS011;50584;29.058;-110.966;2023-10-31T07:56:44;19.60;;;3.83;;
64244;SDS011;50584;29.058;-110.966;2023-10-31T07:59:10;15.02;;;2.65;;
64244;SDS011;50584;29.058;-110.966;2023-10-31T08:01:36;15.60;;;2.53;;
64244;SDS011;50584;29.058;-110.966;2023-10-31T08:04:02;14.57;;;3.17;;
64244;SDS011;50584;29.058;-110.966;2023-10-31T08:06:28;20.27;;;3.10;;
64244;SDS011;50584;29.058;-110.966;2023-10-31T08:08:54;14.27;;;2.83;;
64244;SDS011;50584;29.058;-110.966;2023-10-31T08:11:19;15.63;;;3.10;;
64244;SDS011;50584;29.058;-110.966;2023-10-31T08:13:45;13.40;;;3.22;;
64244;SDS011;50584;29.058;-110.966;2023-10-31T08:16:16;20.15;;;3.33;;
64244;SDS011;50584;29.058;-110.966;2023-10-31T08:18:42;22.90;;;3.38;;
64244;SDS011;50584;29.058;-110.966;2023-10-31T08:21:07;17.25;;;3.10;;
64244;SDS011;50584;29.058;-110.966;2023-10-31T08:23:33;16.15;;;2.88;;
64244;SDS011;50584;29.058;-110.966;2023-10-31T08:26:00;28.85;;;3.42;;
64244;SDS011;50584;29.058;-110.966;2023-10-31T08:28:26;14.23;;;3.08;;
64244;SDS011;50584;29.058;-110.966;2023-10-31T08:30:52;8.68;;;2.85;;
64244;SDS011;50584;29.058;-110.966;2023-10-31T08:33:17;21.10;;;3.58;;
64244;SDS011;50584;29.058;-110.966;2023-10-31T08:35:43;25.35;;;3.00;;
64244;SDS011;50584;29.058;-110.966;2023-10-31T08:38:09;12.50;;;3.47;;
64244;SDS011;50584;29.058;-110.966;2023-10-31T08:40:35;14.80;;;3.42;;
64244;SDS011;50584;29.058;-110.966;2023-10-31T08:43:01;9.40;;;3.42;;
64244;SDS011;50584;29.058;-110.966;2023-10-31T08:45:29;20.38;;;3.33;;
64244;SDS011;50584;29.058;-110.966;2023-10-31T08:47:55;18.60;;;3.05;;
64244;SDS011;50584;29.058;-110.966;2023-10-31T08:50:20;18.42;;;2.65;;
64244;SDS011;50584;29.058;-110.966;2023-10-31T08:52:46;13.68;;;3.03;;
64244;SDS011;50584;29.058;-110.966;2023-10-31T08:55:12;11.50;;;2.63;;
64244;SDS011;50584;29.058;-110.966;2023-10-31T08:57:38;10.55;;;2.78;;
64244;SDS011;50584;29.058;-110.966;2023-10-31T09:00:04;12.52;;;2.38;;
64244;SDS011;50584;29.058;-110.966;2023-10-31T09:02:30;13.52;;;2.65;;
64244;SDS011;50584;29.058;-110.966;2023-10-31T09:04:56;6.57;;;2.70;;
64244;SDS011;50584;29.058;-110.966;2023-10-31T09:07:22;15.43;;;2.50;;
64244;SDS011;50584;29.058;-110.966;2023-10-31T09:09:48;12.10;;;2.80;;
64244;SDS011;50584;29.058;-110.966;2023-10-31T09:12:13;20.85;;;2.80;;
64244;SDS011;50584;29.058;-110.966;2023-10-31T09:14:39;15.75;;;3.00;;
64244;SDS011;50584;29.058;-110.966;2023-10-31T09:17:07;7.85;;;2.50;;
64244;SDS011;50584;29.058;-110.966;2023-10-31T09:19:33;14.88;;;2.40;;
64244;SDS011;50584;29.058;-110.966;2023-10-31T09:21:58;12.82;;;2.70;;
64244;SDS011;50584;29.058;-110.966;2023-10-31T09:24:24;10.80;;;2.80;;
64244;SDS011;50584;29.058;-110.966;2023-10-31T09:26:50;15.02;;;2.20;;
64244;SDS011;50584;29.058;-110.966;2023-10-31T09:29:16;7.75;;;2.40;;
64244;SDS011;50584;29.058;-110.966;2023-10-31T09:31:41;16.20;;;2.97;;
64244;SDS011;50584;29.058;-110.966;2023-10-31T09:34:07;7.13;;;2.15;;
64244;SDS011;50584;29.058;-110.966;2023-10-31T09:36:33;6.53;;;2.03;;
64244;SDS011;50584;29.058;-110.966;2023-10-31T09:39:02;11.20;;;2.03;;
64244;SDS011;50584;29.058;-110.966;2023-10-31T09:41:28;13.00;;;2.83;;
64244;SDS011;50584;29.058;-110.966;2023-10-31T09:43:54;17.63;;;2.75;;
64244;SDS011;50584;29.058;-110.966;2023-10-31T09:46:21;12.13;;;2.78;;
64244;SDS011;50584;29.058;-110.966;2023-10-31T09:48:47;11.57;;;2.65;;
64244;SDS011;50584;29.058;-110.966;2023-10-31T09:51:13;11.30;;;3.60;;
64244;SDS011;50584;29.058;-110.966;2023-10-31T09:53:39;10.77;;;2.28;;
64244;SDS011;50584;29.058;-110.966;2023-10-31T09:56:06;16.00;;;2.83;;
64244;SDS011;50584;29.058;-110.966;2023-10-31T09:58:33;8.50;;;2.03;;
64244;SDS011;50584;29.058;-110.966;2023-10-31T10:00:59;3.85;;;1.88;;
64244;SDS011;50584;29.058;-110.966;2023-10-31T10:03:25;19.27;;;2.78;;
64244;SDS011;50584;29.058;-110.966;2023-10-31T10:05:52;10.35;;;2.10;;
64244;SDS011;50584;29.058;-110.966;2023-10-31T10:08:17;5.53;;;2.33;;
64244;SDS011;50584;29.058;-110.966;2023-10-31T10:10:44;10.15;;;2.05;;
64244;SDS011;50584;29.058;-110.966;2023-10-31T10:13:10;9.65;;;2.00;;
64244;SDS011;50584;29.058;-110.966;2023-10-31T10:15:50;9.98;;;2.20;;
64244;SDS011;50584;29.058;-110.966;2023-10-31T10:18:27;7.25;;;2.30;;
64244;SDS011;50584;29.058;-110.966;2023-10-31T10:20:57;7.40;;;2.05;;
64244;SDS011;50584;29.058;-110.966;2023-10-31T10:23:23;9.82;;;2.20;;
64244;SDS011;50584;29.058;-110.966;2023-10-31T10:25:49;7.97;;;2.20;;
64244;SDS011;50584;29.058;-110.966;2023-10-31T10:28:15;9.48;;;2.80;;
64244;SDS011;50584;29.058;-110.966;2023-10-31T10:30:41;13.38;;;1.92;;
64244;SDS011;50584;29.058;-110.966;2023-10-31T10:33:07;10.80;;;2.10;;
64244;SDS011;50584;29.058;-110.966;2023-10-31T10:35:32;6.03;;;1.75;;
64244;SDS011;50584;29.058;-110.966;2023-10-31T10:37:59;6.80;;;1.67;;
64244;SDS011;50584;29.058;-110.966;2023-10-31T10:40:26;11.32;;;1.90;;
64244;SDS011;50584;29.058;-110.966;2023-10-31T10:42:52;20.27;;;2.45;;
64244;SDS011;50584;29.058;-110.966;2023-10-31T10:47:49;4.93;;;1.60;;
64244;SDS011;50584;29.058;-110.966;2023-10-31T10:50:19;9.82;;;1.92;;
64244;SDS011;50584;29.058;-110.966;2023-10-31T10:53:00;8.15;;;2.00;;
64244;SDS011;50584;29.058;-110.966;2023-10-31T10:55:28;12.18;;;1.90;;
64244;SDS011;50584;29.058;-110.966;2023-10-31T11:00:33;8.07;;;1.70;;
64244;SDS011;50584;29.058;-110.966;2023-10-31T11:02:59;18.40;;;1.90;;
64244;SDS011;50584;29.058;-110.966;2023-10-31T11:05:26;6.90;;;1.70;;
64244;SDS011;50584;29.058;-110.966;2023-10-31T11:07:52;6.15;;;1.70;;
64244;SDS011;50584;29.058;-110.966;2023-10-31T11:10:20;6.75;;;1.65;;
64244;SDS011;50584;29.058;-110.966;2023-10-31T11:12:46;7.20;;;1.63;;
64244;SDS011;50584;29.058;-110.966;2023-10-31T11:15:14;15.40;;;1.98;;
64244;SDS011;50584;29.058;-110.966;2023-10-31T11:17:41;5.47;;;1.73;;
64244;SDS011;50584;29.058;-110.966;2023-10-31T11:20:09;13.05;;;2.13;;
64244;SDS011;50584;29.058;-110.966;2023-10-31T11:22:39;5.20;;;1.90;;
64244;SDS011;50584;29.058;-110.966;2023-10-31T11:25:06;7.60;;;3.38;;
64244;SDS011;50584;29.058;-110.966;2023-10-31T11:27:33;9.25;;;2.00;;
64244;SDS011;50584;29.058;-110.966;2023-10-31T11:29:59;10.10;;;2.22;;
64244;SDS011;50584;29.058;-110.966;2023-10-31T11:32:25;1.80;;;1.70;;
64244;SDS011;50584;29.058;-110.966;2023-10-31T11:34:54;7.93;;;2.13;;
64244;SDS011;50584;29.058;-110.966;2023-10-31T11:37:26;12.85;;;1.80;;
64244;SDS011;50584;29.058;-110.966;2023-10-31T11:42:37;6.07;;;1.70;;
64244;SDS011;50584;29.058;-110.966;2023-10-31T11:45:03;3.85;;;1.67;;
64244;SDS011;50584;29.058;-110.966;2023-10-31T11:47:47;4.72;;;1.60;;
64244;SDS011;50584;29.058;-110.966;2023-10-31T11:50:14;16.73;;;3.13;;
64244;SDS011;50584;29.058;-110.966;2023-10-31T11:52:40;8.68;;;1.88;;
64244;SDS011;50584;29.058;-110.966;2023-10-31T11:55:12;3.42;;;1.73;;
64244;SDS011;50584;29.058;-110.966;2023-10-31T11:57:38;4.50;;;1.75;;
64244;SDS011;50584;29.058;-110.966;2023-10-31T12:00:05;3.72;;;1.33;;
64244;SDS011;50584;29.058;-110.966;2023-10-31T12:02:32;5.25;;;1.40;;
64244;SDS011;50584;29.058;-110.966;2023-10-31T12:05:16;4.32;;;1.60;;
64244;SDS011;50584;29.058;-110.966;2023-10-31T12:07:46;11.38;;;1.30;;
64244;SDS011;50584;29.058;-110.966;2023-10-31T12:10:12;6.85;;;1.70;;
64244;SDS011;50584;29.058;-110.966;2023-10-31T12:12:38;8.93;;;1.70;;
64244;SDS011;50584;29.058;-110.966;2023-10-31T12:15:07;5.50;;;1.67;;
64244;SDS011;50584;29.058;-110.966;2023-10-31T12:17:33;8.23;;;1.95;;
64244;SDS011;50584;29.058;-110.966;2023-10-31T12:20:08;5.53;;;2.20;;
64244;SDS011;50584;29.058;-110.966;2023-10-31T12:22:34;6.78;;;1.70;;
64244;SDS011;50584;29.058;-110.966;2023-10-31T12:25:03;5.55;;;1.83;;
64244;SDS011;50584;29.058;-110.966;2023-10-31T12:27:48;6.10;;;1.63;;
64244;SDS011;50584;29.058;-110.966;2023-10-31T12:30:15;9.43;;;1.90;;
64244;SDS011;50584;29.058;-110.966;2023-10-31T12:32:42;4.80;;;1.70;;
64244;SDS011;50584;29.058;-110.966;2023-10-31T12:35:08;4.50;;;1.55;;
64244;SDS011;50584;29.058;-110.966;2023-10-31T12:37:41;3.55;;;1.33;;
64244;SDS011;50584;29.058;-110.966;2023-10-31T12:40:07;3.33;;;1.30;;
64244;SDS011;50584;29.058;-110.966;2023-10-31T12:42:34;6.10;;;1.77;;
64244;SDS011;50584;29.058;-110.966;2023-10-31T12:45:00;5.00;;;1.30;;
64244;SDS011;50584;29.058;-110.966;2023-10-31T12:47:26;1.50;;;1.40;;
64244;SDS011;50584;29.058;-110.966;2023-10-31T12:50:12;7.15;;;1.27;;
64244;SDS011;50584;29.058;-110.966;2023-10-31T12:55:23;2.10;;;1.30;;
64244;SDS011;50584;29.058;-110.966;2023-10-31T12:57:49;5.97;;;1.40;;
64244;SDS011;50584;29.058;-110.966;2023-10-31T13:00:15;4.90;;;1.45;;
64244;SDS011;50584;29.058;-110.966;2023-10-31T13:02:44;4.30;;;1.50;;
64244;SDS011;50584;29.058;-110.966;2023-10-31T13:05:11;6.40;;;1.45;;
64244;SDS011;50584;29.058;-110.966;2023-10-31T13:07:37;5.00;;;1.30;;
64244;SDS011;50584;29.058;-110.966;2023-10-31T13:10:07;4.60;;;1.50;;
64244;SDS011;50584;29.058;-110.966;2023-10-31T13:12:36;4.97;;;1.42;;
64244;SDS011;50584;29.058;-110.966;2023-10-31T13:15:02;4.40;;;1.50;;
64244;SDS011;50584;29.058;-110.966;2023-10-31T13:17:28;3.80;;;1.40;;
64244;SDS011;50584;29.058;-110.966;2023-10-31T13:19:54;5.22;;;1.63;;
64244;SDS011;50584;29.058;-110.966;2023-10-31T13:22:20;4.68;;;1.80;;
64244;SDS011;50584;29.058;-110.966;2023-10-31T13:24:45;7.88;;;1.80;;
64244;SDS011;50584;29.058;-110.966;2023-10-31T13:27:11;8.80;;;2.00;;
64244;SDS011;50584;29.058;-110.966;2023-10-31T13:29:41;4.80;;;1.70;;
64244;SDS011;50584;29.058;-110.966;2023-10-31T13:32:07;7.72;;;1.63;;
64244;SDS011;50584;29.058;-110.966;2023-10-31T13:34:34;15.35;;;1.92;;
64244;SDS011;50584;29.058;-110.966;2023-10-31T13:37:00;6.63;;;1.92;;
64244;SDS011;50584;29.058;-110.966;2023-10-31T13:39:26;6.72;;;1.67;;
64244;SDS011;50584;29.058;-110.966;2023-10-31T13:41:51;18.08;;;2.25;;
64244;SDS011;50584;29.058;-110.966;2023-10-31T13:44:17;6.65;;;1.90;;
64244;SDS011;50584;29.058;-110.966;2023-10-31T13:46:43;5.55;;;2.38;;
64244;SDS011;50584;29.058;-110.966;2023-10-31T13:49:09;10.85;;;2.00;;
64244;SDS011;50584;29.058;-110.966;2023-10-31T13:51:35;11.00;;;2.47;;
64244;SDS011;50584;29.058;-110.966;2023-10-31T13:54:01;8.82;;;1.70;;
64244;SDS011;50584;29.058;-110.966;2023-10-31T13:56:27;12.90;;;1.70;;
64244;SDS011;50584;29.058;-110.966;2023-10-31T13:58:53;7.63;;;1.80;;
64244;SDS011;50584;29.058;-110.966;2023-10-31T14:01:19;12.85;;;1.90;;
64244;SDS011;50584;29.058;-110.966;2023-10-31T14:03:50;12.18;;;2.70;;
64244;SDS011;50584;29.058;-110.966;2023-10-31T14:06:15;15.65;;;3.40;;
64244;SDS011;50584;29.058;-110.966;2023-10-31T14:08:42;16.92;;;3.65;;
64244;SDS011;50584;29.058;-110.966;2023-10-31T14:11:08;47.40;;;8.60;;